FCBB/BZV METAR and TAF weather

Enter ICAO airport designator
Station Type Date Time Source
FCBB METAR 2021/03/05 12:00 UTC NOAA

FCBB 051200Z 27006KT 210V320 9999 SCT020 33/24 Q1009 NOSIG


Station Type Date Time Source
FCBB Decoded METAR 2021/03/05 12:00 UTC NOAA

Brazzaville / Maya-Maya, Congo, Republic of the (FCBB) 04-15S 015-15E 316M
Mar 05, 2021 - 07:00 AM EST / 2021.03.05 1200 UTC
Wind: from the W (270 degrees) at 7 MPH (6 KT) (direction variable):0
Visibility: greater than 7 mile(s):0
Sky conditions: partly cloudy
Temperature: 91 F (33 C)
Heat index: 101.5 F (38.6 C):1
Dew Point: 75 F (24 C)
Relative Humidity: 59%
Pressure (altimeter): 29.80 in. Hg (1009 hPa)
ob: FCBB 051200Z 27006KT 210V320 9999 SCT020 33/24 Q1009 NOSIG
cycle: 12

Station Type Date Time Source
FCBB TAF 2021/03/05 12:36 UTC NOAA

TAF TAF FCBB 051100Z 0512/0618 23005KT 9000 SCT018 PROB30 0514/0517 TS FEW020 FEW030CB
BECMG 0520/0522 SCT020 FEW030CB PROB40
TEMPO 0522/0603 -TSRA PROB40
TEMPO 0607/0611 4000 TSRA
BECMG 0611/0613 FEW018

Example: see airport list